Vjaz'Ma, Russia
Current Conditions -  °F | °C
As of 5:30 AM on Monday 24 Nov 2014 (Local Time) from UUBW Reporting Station
Haze Haze  
Wind Chill: 23°   Ceiling: 800
Heat Index: 28°   Visibility: 3mi
Dew Point: 25°   Wind: 4mph
Humidity: 86%   Direction: 90°E
Pressure: 30.65"   Gusts: NA
Location:  55.17°N, 34.4°E
Report Text: UUBW 240230Z 09002MPS 5000 BR OVC008 M02/M04 Q1038 NOSIG
Loading
Personal Weather Stations






























Interactive Weather Map New forecast layout! Learn more

10-Day Weather Forecast

Advertisements
Track Severe Weather on mobile